createdAt,value
2023-03-24T00:00:04.925Z,100458.06
2023-03-24T00:02:31.702Z,100462.03
2023-03-24T00:04:58.406Z,100462.06
2023-03-24T00:07:25.657Z,100468.69
2023-03-24T00:09:53.913Z,100459.66
2023-03-24T00:12:20.586Z,100463.28
2023-03-24T00:14:47.372Z,100457.22
2023-03-24T00:17:14.107Z,100467.69
2023-03-24T00:19:41.285Z,100463.09
2023-03-24T00:22:09.411Z,100461.16
2023-03-24T00:24:36.046Z,100451.28
2023-03-24T00:27:02.653Z,100455.75
2023-03-24T00:29:29.320Z,100449.38
2023-03-24T00:31:56.249Z,100446.41
2023-03-24T00:34:23.345Z,100460.28
2023-03-24T00:36:51.354Z,100448.66
2023-03-24T00:39:19.874Z,100453.38
2023-03-24T00:41:47.914Z,100445.69
2023-03-24T00:44:16.281Z,100449.03
2023-03-24T00:46:42.888Z,100447.13
2023-03-24T00:49:10.269Z,100435.53
2023-03-24T00:51:42.602Z,100437.25
2023-03-24T00:54:13.021Z,100436.19
2023-03-24T00:56:41.091Z,100435.63
2023-03-24T00:59:08.553Z,100432.63
2023-03-24T01:01:36.227Z,100432.91
2023-03-24T01:04:04.617Z,100432.91
2023-03-24T01:06:31.372Z,100431.50
2023-03-24T01:08:57.993Z,100430.41
2023-03-24T01:11:26.484Z,100426.53
2023-03-24T01:13:53.680Z,100414.91
2023-03-24T01:16:20.522Z,100407.75
2023-03-24T01:18:47.256Z,100405.88
2023-03-24T01:21:13.860Z,100410.56
2023-03-24T01:23:40.627Z,100400.91
2023-03-24T01:26:08.919Z,100397.38
2023-03-24T01:28:36.589Z,100403.47
2023-03-24T01:31:03.194Z,100404.50
2023-03-24T01:33:29.740Z,100401.97
2023-03-24T01:35:56.320Z,100401.94
2023-03-24T01:38:22.897Z,100414.09
2023-03-24T01:40:49.557Z,100403.06
2023-03-24T01:43:23.780Z,100404.16
2023-03-24T01:46:15.636Z,100413.53
2023-03-24T01:49:04.947Z,100401.44
2023-03-24T01:51:44.508Z,100398.09
2023-03-24T01:54:17.129Z,100400.00
2023-03-24T01:56:50.549Z,100397.28
2023-03-24T01:59:20.812Z,100395.94
2023-03-24T02:01:47.397Z,100394.03
2023-03-24T02:04:14.722Z,100392.72
2023-03-24T02:06:45.409Z,100389.97
2023-03-24T02:09:14.183Z,100384.72
2023-03-24T02:11:41.799Z,100379.50
2023-03-24T02:14:11.034Z,100394.69
2023-03-24T02:17:05.587Z,100394.16
2023-03-24T02:19:50.421Z,100397.22
2023-03-24T02:22:26.005Z,100393.09
2023-03-24T02:25:30.069Z,100393.34
2023-03-24T02:28:02.316Z,100399.19
2023-03-24T02:30:56.710Z,100394.22
2023-03-24T02:33:48.131Z,100387.84
2023-03-24T02:36:28.262Z,100395.31
2023-03-24T02:39:36.430Z,100395.91
2023-03-24T02:42:27.508Z,100394.81
2023-03-24T02:45:08.949Z,100388.75
2023-03-24T02:48:14.324Z,100387.91
2023-03-24T02:51:04.216Z,100386.81
2023-03-24T02:53:53.687Z,100395.06
2023-03-24T02:56:30.390Z,100396.47
2023-03-24T02:58:59.959Z,100390.13
2023-03-24T03:01:32.395Z,100387.94
2023-03-24T03:04:05.203Z,100379.69
2023-03-24T03:06:38.197Z,100383.56
2023-03-24T03:09:11.763Z,100382.50
2023-03-24T03:11:41.539Z,100380.25
2023-03-24T03:14:34.055Z,100376.69
2023-03-24T03:17:15.602Z,100384.69
2023-03-24T03:19:48.614Z,100385.25
2023-03-24T03:22:23.205Z,100381.94
2023-03-24T03:24:54.445Z,100385.25
2023-03-24T03:27:25.781Z,100388.03
2023-03-24T03:29:56.005Z,100391.88
2023-03-24T03:32:27.950Z,100385.00
2023-03-24T03:35:19.754Z,100384.72
2023-03-24T03:37:57.563Z,100380.03
2023-03-24T03:40:56.480Z,100374.81
2023-03-24T03:43:25.626Z,100380.88
2023-03-24T03:45:52.811Z,100380.03
2023-03-24T03:48:19.732Z,100377.81
2023-03-24T03:50:46.633Z,100384.72
2023-03-24T03:53:19.819Z,100376.44
2023-03-24T03:55:46.966Z,100379.75
2023-03-24T03:58:13.887Z,100380.31
2023-03-24T04:00:42.481Z,100377.28
2023-03-24T04:03:46.206Z,100376.44
2023-03-24T04:06:12.745Z,100383.59
2023-03-24T04:09:05.704Z,100382.22
2023-03-24T04:11:50.158Z,100380.56
2023-03-24T04:14:25.681Z,100384.72
2023-03-24T04:17:08.312Z,100378.63
2023-03-24T04:19:34.879Z,100385.81
2023-03-24T04:22:01.506Z,100382.50
2023-03-24T04:24:48.204Z,100381.13
2023-03-24T04:27:20.902Z,100386.09
2023-03-24T04:30:05.894Z,100385.84
2023-03-24T04:32:48.882Z,100381.44
2023-03-24T04:35:42.673Z,100378.13
2023-03-24T04:38:14.179Z,100376.44
2023-03-24T04:40:43.354Z,100386.94
2023-03-24T04:43:15.561Z,100384.72
2023-03-24T04:45:44.962Z,100377.25
2023-03-24T04:48:12.892Z,100379.75
2023-03-24T04:50:42.116Z,100375.88
2023-03-24T04:53:10.341Z,100374.78
2023-03-24T04:55:59.157Z,100380.81
2023-03-24T04:58:25.734Z,100378.63
2023-03-24T05:00:52.452Z,100375.84
2023-03-24T05:03:19.508Z,100373.59
2023-03-24T05:05:49.477Z,100370.31
2023-03-24T05:08:17.015Z,100371.94
2023-03-24T05:10:44.310Z,100379.06
2023-03-24T05:13:14.281Z,100372.41
2023-03-24T05:15:41.354Z,100379.00
2023-03-24T05:18:08.971Z,100380.00
2023-03-24T05:20:35.895Z,100376.09
2023-03-24T05:23:02.436Z,100382.41
2023-03-24T05:25:29.161Z,100379.63
2023-03-24T05:27:55.784Z,100381.78
2023-03-24T05:30:22.676Z,100387.53
2023-03-24T05:32:49.416Z,100389.69
2023-03-24T05:35:16.131Z,100389.34
2023-03-24T05:37:43.012Z,100393.47
2023-03-24T05:40:10.444Z,100397.19
2023-03-24T05:42:37.028Z,100393.06
2023-03-24T05:45:04.949Z,100402.56
2023-03-24T05:47:31.695Z,100410.69
2023-03-24T05:49:58.272Z,100419.81
2023-03-24T05:52:27.338Z,100414.53
2023-03-24T05:54:55.246Z,100403.09
2023-03-24T05:57:21.882Z,100408.16
2023-03-24T05:59:48.466Z,100412.28
2023-03-24T06:02:15.379Z,100403.69
2023-03-24T06:04:42.097Z,100409.56
2023-03-24T06:07:08.768Z,100415.44
2023-03-24T06:09:38.307Z,100424.41
2023-03-24T06:12:08.151Z,100423.03
2023-03-24T06:14:35.028Z,100416.53
2023-03-24T06:17:01.545Z,100412.25
2023-03-24T06:19:28.530Z,100419.22
2023-03-24T06:21:55.165Z,100416.47
2023-03-24T06:24:21.746Z,100416.63
2023-03-24T06:26:51.023Z,100414.22
2023-03-24T06:29:17.906Z,100417.41
2023-03-24T06:31:45.360Z,100409.97
2023-03-24T06:34:12.202Z,100414.28
2023-03-24T06:36:38.761Z,100419.72
2023-03-24T06:39:05.504Z,100424.31
2023-03-24T06:41:32.644Z,100417.34
2023-03-24T06:43:59.254Z,100419.41
2023-03-24T06:46:25.973Z,100415.72
2023-03-24T06:48:52.638Z,100417.69
2023-03-24T06:51:19.543Z,100424.72
2023-03-24T06:53:46.347Z,100422.06
2023-03-24T06:56:13.342Z,100419.34
2023-03-24T06:58:39.970Z,100427.69
2023-03-24T07:01:06.555Z,100419.13
2023-03-24T07:03:35.661Z,100428.84
2023-03-24T07:06:02.301Z,100417.50
2023-03-24T07:08:37.953Z,100433.28
2023-03-24T07:11:05.706Z,100434.69
2023-03-24T07:13:32.393Z,100439.94
2023-03-24T07:15:58.996Z,100439.63
2023-03-24T07:18:25.542Z,100438.28
2023-03-24T07:20:55.176Z,100444.53
2023-03-24T07:23:21.768Z,100447.84
2023-03-24T07:25:48.467Z,100439.94
2023-03-24T07:28:15.097Z,100444.44
2023-03-24T07:30:41.693Z,100445.63
2023-03-24T07:33:09.456Z,100436.28
2023-03-24T07:35:36.163Z,100442.88
2023-03-24T07:38:02.862Z,100436.41
2023-03-24T07:40:29.608Z,100447.19
2023-03-24T07:43:00.595Z,100441.44
2023-03-24T07:45:27.558Z,100447.72
2023-03-24T07:47:54.578Z,100449.28
2023-03-24T07:50:21.123Z,100446.84
2023-03-24T07:52:49.178Z,100442.66
2023-03-24T07:55:15.958Z,100436.25
2023-03-24T07:57:45.460Z,100439.25
2023-03-24T08:00:12.681Z,100442.97
2023-03-24T08:02:39.528Z,100443.97
2023-03-24T08:05:06.428Z,100435.22
2023-03-24T08:07:33.124Z,100429.72
2023-03-24T08:09:59.978Z,100437.56
2023-03-24T08:12:29.568Z,100426.91
2023-03-24T08:14:56.351Z,100426.94
2023-03-24T08:17:22.882Z,100430.09
2023-03-24T08:19:59.497Z,100423.72
2023-03-24T08:22:27.998Z,100420.09
2023-03-24T08:24:54.674Z,100425.63
2023-03-24T08:27:23.111Z,100414.88
2023-03-24T08:29:49.728Z,100407.53
2023-03-24T08:32:16.509Z,100412.13
2023-03-24T08:34:43.202Z,100413.53
2023-03-24T08:37:09.730Z,100413.22
2023-03-24T08:39:36.286Z,100410.25
2023-03-24T08:42:03.386Z,100402.22
2023-03-24T08:44:33.002Z,100401.34
2023-03-24T08:47:01.245Z,100403.50
2023-03-24T08:49:28.072Z,100398.50
2023-03-24T08:51:54.612Z,100393.94
2023-03-24T08:54:22.579Z,100398.13
2023-03-24T08:56:50.112Z,100387.09
2023-03-24T08:59:17.288Z,100391.47
2023-03-24T09:01:44.018Z,100390.41
2023-03-24T09:04:10.655Z,100373.75
2023-03-24T09:06:38.178Z,100389.28
2023-03-24T09:09:07.520Z,100373.50
2023-03-24T09:11:35.792Z,100375.53
2023-03-24T09:14:03.332Z,100373.09
2023-03-24T09:16:29.990Z,100371.03
2023-03-24T09:18:56.654Z,100367.88
2023-03-24T09:21:23.725Z,100367.91
2023-03-24T09:23:50.276Z,100371.72
2023-03-24T09:26:26.288Z,100364.53
2023-03-24T09:28:53.277Z,100372.50
2023-03-24T09:31:30.001Z,100364.50
2023-03-24T09:34:01.151Z,100363.53
2023-03-24T09:36:31.213Z,100359.53
2023-03-24T09:38:58.009Z,100349.56
2023-03-24T09:41:34.644Z,100357.22
2023-03-24T09:44:14.690Z,100353.31
2023-03-24T09:47:22.625Z,100353.91
2023-03-24T09:49:49.662Z,100347.94
2023-03-24T09:52:21.429Z,100349.25
2023-03-24T09:55:11.269Z,100344.28
2023-03-24T09:57:41.004Z,100349.06
2023-03-24T10:00:16.617Z,100343.34
2023-03-24T10:02:43.709Z,100337.59
2023-03-24T10:05:17.144Z,100347.25
2023-03-24T10:07:53.621Z,100335.59
2023-03-24T10:10:44.484Z,100321.41
2023-03-24T10:13:38.680Z,100316.44
2023-03-24T10:16:20.815Z,100317.91
2023-03-24T10:19:13.772Z,100310.09
2023-03-24T10:21:53.280Z,100302.56
2023-03-24T10:24:31.296Z,100303.28
2023-03-24T10:27:14.926Z,100302.41
2023-03-24T10:29:43.301Z,100288.38
2023-03-24T10:32:24.662Z,100293.81
2023-03-24T10:34:57.506Z,100299.63
2023-03-24T10:37:24.380Z,100290.28
2023-03-24T10:39:51.875Z,100283.56
2023-03-24T10:42:24.473Z,100283.81
2023-03-24T10:44:52.450Z,100285.06
2023-03-24T10:47:29.006Z,100278.78
2023-03-24T10:50:12.003Z,100269.34
2023-03-24T10:52:41.946Z,100264.97
2023-03-24T10:55:16.346Z,100266.16
2023-03-24T10:57:46.132Z,100260.34
2023-03-24T11:00:45.225Z,100243.41
2023-03-24T11:03:16.830Z,100252.44
2023-03-24T11:05:44.810Z,100237.94
2023-03-24T11:08:17.331Z,100228.09
2023-03-24T11:10:44.266Z,100223.56
2023-03-24T11:13:29.035Z,100216.00
2023-03-24T11:16:07.506Z,100214.63
2023-03-24T11:18:35.270Z,100200.16
2023-03-24T11:21:04.519Z,100214.16
2023-03-24T11:23:39.243Z,100196.78
2023-03-24T11:26:09.885Z,100196.50
2023-03-24T11:28:45.461Z,100193.69
2023-03-24T11:31:22.093Z,100189.22
2023-03-24T11:33:57.530Z,100186.38
2023-03-24T11:36:30.436Z,100183.88
2023-03-24T11:39:04.029Z,100169.53
2023-03-24T11:41:30.682Z,100157.06
2023-03-24T11:44:24.145Z,100149.72
2023-03-24T11:46:55.849Z,100150.84
2023-03-24T11:49:28.340Z,100146.41
2023-03-24T11:51:55.939Z,100138.66
2023-03-24T11:54:32.879Z,100135.41
2023-03-24T11:57:04.587Z,100137.34
2023-03-24T11:59:58.312Z,100131.13
2023-03-24T12:02:53.085Z,100124.41
2023-03-24T12:05:19.743Z,100116.91
2023-03-24T12:08:07.128Z,100116.84
2023-03-24T12:11:02.598Z,100107.63
2023-03-24T12:13:45.206Z,100099.00
2023-03-24T12:16:17.527Z,100096.94
2023-03-24T12:19:04.533Z,100086.31
2023-03-24T12:21:55.622Z,100087.41
2023-03-24T12:24:31.540Z,100073.00
2023-03-24T12:27:00.206Z,100067.34
2023-03-24T12:29:36.056Z,100069.31
2023-03-24T12:32:16.703Z,100066.59
2023-03-24T12:35:09.865Z,100065.78
2023-03-24T12:37:47.339Z,100063.66
2023-03-24T12:40:38.588Z,100050.00
2023-03-24T12:43:36.266Z,100053.63
2023-03-24T12:46:17.594Z,100045.66
2023-03-24T12:49:28.457Z,100047.19
2023-03-24T12:52:18.175Z,100039.03
2023-03-24T12:54:44.707Z,100043.91
2023-03-24T12:57:16.518Z,100030.19
2023-03-24T13:00:08.830Z,100036.41
2023-03-24T13:02:46.158Z,100026.03
2023-03-24T13:05:20.914Z,100016.88
2023-03-24T13:07:50.321Z,100025.22
2023-03-24T13:10:34.477Z,100019.16
2023-03-24T13:13:13.833Z,100013.81
2023-03-24T13:15:47.242Z,100007.88
2023-03-24T13:18:33.010Z,99997.91
2023-03-24T13:21:16.406Z,100001.88
2023-03-24T13:24:00.893Z,99997.22
2023-03-24T13:26:45.688Z,99996.88
2023-03-24T13:29:49.035Z,99987.09
2023-03-24T13:32:29.494Z,99980.91
2023-03-24T13:35:20.001Z,99983.75
2023-03-24T13:37:46.555Z,99979.81
2023-03-24T13:40:25.289Z,99971.09
2023-03-24T13:42:56.793Z,99969.81
2023-03-24T13:45:31.368Z,99969.47
2023-03-24T13:48:09.788Z,99967.59
2023-03-24T13:51:00.483Z,99956.44
2023-03-24T13:53:33.534Z,99967.63
2023-03-24T13:56:01.087Z,99962.94
2023-03-24T13:58:55.704Z,99943.16
2023-03-24T14:01:37.616Z,99953.16
2023-03-24T14:04:26.297Z,99948.41
2023-03-24T14:06:57.794Z,99945.94
2023-03-24T14:09:33.293Z,99937.00
2023-03-24T14:12:02.544Z,99927.75
2023-03-24T14:14:30.772Z,99933.31
2023-03-24T14:16:57.981Z,99934.84
2023-03-24T14:19:32.563Z,99921.53
2023-03-24T14:22:15.408Z,99929.66
2023-03-24T14:24:45.978Z,99927.75
2023-03-24T14:27:31.637Z,99926.88
2023-03-24T14:30:13.450Z,99937.25
2023-03-24T14:32:49.791Z,99927.88
2023-03-24T14:35:41.783Z,99924.59
2023-03-24T14:38:14.275Z,99923.88
2023-03-24T14:40:46.769Z,99920.59
2023-03-24T14:43:26.786Z,99911.28
2023-03-24T14:45:55.094Z,99912.16
2023-03-24T14:48:35.692Z,99910.91
2023-03-24T14:51:11.570Z,99906.53
2023-03-24T14:53:39.285Z,99910.09
2023-03-24T14:56:15.316Z,99899.63
2023-03-24T14:58:44.112Z,99895.94
2023-03-24T15:01:14.487Z,99892.34
2023-03-24T15:04:01.502Z,99879.81
2023-03-24T15:06:28.248Z,99880.22
2023-03-24T15:08:57.158Z,99874.75
2023-03-24T15:11:27.348Z,99867.75
2023-03-24T15:13:55.679Z,99866.19
2023-03-24T15:16:25.503Z,99860.19
2023-03-24T15:19:01.876Z,99856.16
2023-03-24T15:21:40.367Z,99850.91
2023-03-24T15:24:21.791Z,99852.03
2023-03-24T15:26:53.158Z,99853.97
2023-03-24T15:29:20.193Z,99845.84
2023-03-24T15:31:47.450Z,99848.16
2023-03-24T15:34:33.478Z,99846.44
2023-03-24T15:37:04.002Z,99848.41
2023-03-24T15:39:38.790Z,99841.13
2023-03-24T15:42:14.530Z,99847.16
2023-03-24T15:44:41.834Z,99845.47
2023-03-24T15:47:19.741Z,99849.00
2023-03-24T15:49:58.211Z,99842.97
2023-03-24T15:52:33.637Z,99845.28
2023-03-24T15:55:19.302Z,99839.19
2023-03-24T15:57:47.823Z,99841.13
2023-03-24T16:00:18.186Z,99841.44
2023-03-24T16:02:50.565Z,99838.09
2023-03-24T16:05:31.614Z,99841.56
2023-03-24T16:08:04.268Z,99849.06
2023-03-24T16:10:40.385Z,99841.72
2023-03-24T16:13:13.396Z,99844.78
2023-03-24T16:15:58.945Z,99841.88
2023-03-24T16:18:36.958Z,99836.88
2023-03-24T16:21:28.376Z,99841.50
2023-03-24T16:23:57.813Z,99839.75
2023-03-24T16:26:29.857Z,99836.38
2023-03-24T16:29:20.460Z,99837.00
2023-03-24T16:31:49.373Z,99836.44
2023-03-24T16:34:17.258Z,99835.56
2023-03-24T16:36:43.946Z,99832.59
2023-03-24T16:39:16.285Z,99833.66
2023-03-24T16:41:42.990Z,99820.31
2023-03-24T16:44:10.246Z,99830.28
2023-03-24T16:46:37.971Z,99826.16
2023-03-24T16:49:07.137Z,99834.88
2023-03-24T16:51:34.253Z,99830.75
2023-03-24T16:54:00.829Z,99826.88
2023-03-24T16:56:27.466Z,99829.56
2023-03-24T16:58:54.175Z,99818.53
2023-03-24T17:01:32.943Z,99828.34
2023-03-24T17:04:01.826Z,99823.03
2023-03-24T17:06:30.380Z,99823.63
2023-03-24T17:08:57.771Z,99832.31
2023-03-24T17:11:30.210Z,99834.25
2023-03-24T17:13:57.801Z,99832.00
2023-03-24T17:16:24.385Z,99830.19
2023-03-24T17:18:51.205Z,99829.22
2023-03-24T17:21:19.090Z,99832.22
2023-03-24T17:23:47.355Z,99824.41
2023-03-24T17:26:13.926Z,99823.88
2023-03-24T17:28:40.600Z,99825.59
2023-03-24T17:31:07.418Z,99828.31
2023-03-24T17:33:34.416Z,99816.19
2023-03-24T17:36:01.018Z,99811.63
2023-03-24T17:38:27.640Z,99809.44
2023-03-24T17:41:01.265Z,99808.97
2023-03-24T17:43:27.974Z,99814.88
2023-03-24T17:45:59.028Z,99809.53
2023-03-24T17:48:26.285Z,99807.81
2023-03-24T17:50:53.522Z,99811.41
2023-03-24T17:53:20.425Z,99813.78
2023-03-24T17:55:47.036Z,99809.16
2023-03-24T17:58:13.609Z,99804.63
2023-03-24T18:00:40.300Z,99800.13
2023-03-24T18:03:06.832Z,99802.38
2023-03-24T18:05:33.391Z,99804.00
2023-03-24T18:07:59.943Z,99799.09
2023-03-24T18:10:26.517Z,99801.09
2023-03-24T18:12:54.484Z,99800.97
2023-03-24T18:15:21.189Z,99796.94
2023-03-24T18:17:47.707Z,99794.41
2023-03-24T18:20:14.486Z,99787.84
2023-03-24T18:22:43.904Z,99790.56
2023-03-24T18:25:11.744Z,99800.94
2023-03-24T18:27:38.350Z,99794.41
2023-03-24T18:30:06.188Z,99793.97
2023-03-24T18:32:32.866Z,99790.72
2023-03-24T18:34:59.993Z,99787.91
2023-03-24T18:37:27.891Z,99793.03
2023-03-24T18:39:54.529Z,99787.72
2023-03-24T18:42:21.143Z,99793.75
2023-03-24T18:44:48.140Z,99789.69
2023-03-24T18:47:14.795Z,99792.03
2023-03-24T18:49:41.648Z,99786.78
2023-03-24T18:52:09.617Z,99773.53
2023-03-24T18:54:36.477Z,99778.22
2023-03-24T18:57:03.148Z,99772.16
2023-03-24T18:59:30.022Z,99770.97
2023-03-24T19:01:56.799Z,99764.72
2023-03-24T19:04:23.345Z,99766.63
2023-03-24T19:06:49.884Z,99772.56
2023-03-24T19:09:16.654Z,99760.81
2023-03-24T19:11:43.518Z,99772.00
2023-03-24T19:14:10.351Z,99766.41
2023-03-24T19:16:36.981Z,99760.81
2023-03-24T19:19:04.232Z,99767.13
2023-03-24T19:21:30.985Z,99766.41
2023-03-24T19:23:57.516Z,99760.59
2023-03-24T19:26:24.099Z,99754.31
2023-03-24T19:28:50.928Z,99753.84
2023-03-24T19:31:19.234Z,99752.56
2023-03-24T19:33:47.071Z,99752.56
2023-03-24T19:36:14.248Z,99750.50
2023-03-24T19:38:40.862Z,99744.81
2023-03-24T19:41:11.451Z,99740.25
2023-03-24T19:43:38.148Z,99739.00
2023-03-24T19:46:05.949Z,99740.03
2023-03-24T19:48:33.571Z,99746.34
2023-03-24T19:51:00.159Z,99731.94
2023-03-24T19:53:26.833Z,99733.91
2023-03-24T19:55:56.614Z,99726.56
2023-03-24T19:58:23.307Z,99726.91
2023-03-24T20:00:51.165Z,99731.69
2023-03-24T20:03:18.020Z,99725.53
2023-03-24T20:05:44.726Z,99724.63
2023-03-24T20:08:14.178Z,99719.75
2023-03-24T20:10:40.916Z,99714.38
2023-03-24T20:13:08.583Z,99722.28
2023-03-24T20:15:35.539Z,99721.81
2023-03-24T20:18:02.351Z,99722.97
2023-03-24T20:20:29.025Z,99721.00
2023-03-24T20:22:55.628Z,99725.78
2023-03-24T20:25:22.185Z,99720.19
2023-03-24T20:27:48.854Z,99717.97
2023-03-24T20:30:20.291Z,99720.75
2023-03-24T20:32:47.204Z,99711.91
2023-03-24T20:35:14.310Z,99711.56
2023-03-24T20:37:40.889Z,99713.91
2023-03-24T20:40:08.476Z,99709.13
2023-03-24T20:42:35.256Z,99704.38
2023-03-24T20:45:01.771Z,99707.78
2023-03-24T20:47:28.345Z,99711.56
2023-03-24T20:49:55.034Z,99710.63
2023-03-24T20:52:21.686Z,99718.75
2023-03-24T20:54:48.281Z,99705.34
2023-03-24T20:57:14.947Z,99708.63
2023-03-24T20:59:41.681Z,99699.06
2023-03-24T21:02:10.721Z,99704.66
2023-03-24T21:04:37.401Z,99708.97
2023-03-24T21:07:03.960Z,99704.19
2023-03-24T21:09:30.560Z,99700.56
2023-03-24T21:11:57.127Z,99702.91
2023-03-24T21:14:23.673Z,99698.50
2023-03-24T21:16:50.506Z,99695.69
2023-03-24T21:19:17.581Z,99693.38
2023-03-24T21:21:44.155Z,99683.34
2023-03-24T21:24:11.016Z,99687.31
2023-03-24T21:26:37.518Z,99680.91
2023-03-24T21:29:04.110Z,99678.47
2023-03-24T21:31:30.782Z,99673.84
2023-03-24T21:33:57.695Z,99681.78
2023-03-24T21:36:26.340Z,99685.97
2023-03-24T21:38:52.961Z,99673.41
2023-03-24T21:41:21.006Z,99670.63
2023-03-24T21:43:47.880Z,99682.47
2023-03-24T21:46:14.497Z,99675.97
2023-03-24T21:48:41.382Z,99673.44
2023-03-24T21:51:07.948Z,99686.22
2023-03-24T21:53:34.551Z,99674.13
2023-03-24T21:56:01.116Z,99669.97
2023-03-24T21:58:27.961Z,99661.94
2023-03-24T22:00:54.988Z,99669.50
2023-03-24T22:03:21.713Z,99660.53
2023-03-24T22:05:48.765Z,99659.63
2023-03-24T22:08:15.626Z,99665.44
2023-03-24T22:10:42.168Z,99668.56
2023-03-24T22:13:09.505Z,99659.28
2023-03-24T22:15:36.846Z,99662.69
2023-03-24T22:18:03.750Z,99652.09
2023-03-24T22:20:30.496Z,99652.78
2023-03-24T22:22:57.209Z,99650.13
2023-03-24T22:25:24.083Z,99653.94
2023-03-24T22:27:52.602Z,99658.59
2023-03-24T22:30:19.561Z,99657.22
2023-03-24T22:32:46.097Z,99666.97
2023-03-24T22:35:12.892Z,99660.44
2023-03-24T22:37:41.616Z,99662.78
2023-03-24T22:40:08.989Z,99657.78
2023-03-24T22:42:35.774Z,99656.03
2023-03-24T22:45:02.440Z,99640.34
2023-03-24T22:47:29.170Z,99645.59
2023-03-24T22:49:55.765Z,99649.28
2023-03-24T22:52:22.295Z,99642.41
2023-03-24T22:54:48.828Z,99639.47
2023-03-24T22:57:15.465Z,99637.25
2023-03-24T22:59:41.990Z,99634.34
2023-03-24T23:02:10.267Z,99637.03
2023-03-24T23:04:38.048Z,99627.13
2023-03-24T23:07:04.586Z,99635.84
2023-03-24T23:09:31.387Z,99629.78
2023-03-24T23:11:57.929Z,99627.31
2023-03-24T23:14:24.563Z,99630.00
2023-03-24T23:16:51.571Z,99625.59
2023-03-24T23:19:18.165Z,99620.72
2023-03-24T23:21:44.780Z,99626.13
2023-03-24T23:24:11.303Z,99612.88
2023-03-24T23:26:38.019Z,99621.94
2023-03-24T23:29:04.673Z,99617.06
2023-03-24T23:31:31.212Z,99618.91
2023-03-24T23:33:58.597Z,99622.22
2023-03-24T23:36:25.364Z,99621.31
2023-03-24T23:38:52.676Z,99612.69
2023-03-24T23:41:22.527Z,99613.59
2023-03-24T23:43:50.529Z,99611.94
2023-03-24T23:46:18.291Z,99611.34
2023-03-24T23:48:45.417Z,99603.41
2023-03-24T23:51:12.336Z,99600.53
2023-03-24T23:53:38.961Z,99597.50
2023-03-24T23:56:07.541Z,99593.09
2023-03-24T23:58:37.382Z,99595.72
